Time;durP1;ratioP1;P1;durP2;ratioP2;P2;SDS_P1;SDS_P2;PMS_P1;PMS_P2;Temp;Humidity;BMP_temperature;BMP_pressure;BME280_temperature;BME280_humidity;BME280_pressure;Samples;Min_cycle;Max_cycle;Signal;HPM_P1;HPM_P2
2023/12/18 00:00:26;;;;;;;15.05;7.57;;;;;;;4.37;100.00;102832.91;5034716;28;20114;-68
2023/12/18 00:02:51;;;;;;;16.98;8.48;;;;;;;4.47;100.00;102806.09;5033097;28;20042;-68
2023/12/18 00:05:20;;;;;;;12.82;7.85;;;;;;;4.51;100.00;102824.22;5039329;28;20543;-69
2023/12/18 00:07:45;;;;;;;16.98;7.75;;;;;;;4.47;100.00;102817.22;5044881;28;20052;-69
2023/12/18 00:10:10;;;;;;;14.13;8.45;;;;;;;4.47;100.00;102817.22;5023835;28;20029;-69
2023/12/18 00:12:36;;;;;;;16.65;8.48;;;;;;;4.52;100.00;102814.84;5056055;28;20053;-68
2023/12/18 00:15:02;;;;;;;18.08;7.97;;;;;;;4.45;100.00;102821.34;5055588;28;20022;-68
2023/12/18 00:17:27;;;;;;;14.88;8.00;;;;;;;4.36;100.00;102820.06;5058505;28;20049;-69
2023/12/18 00:19:53;;;;;;;17.80;8.00;;;;;;;4.24;100.00;102814.31;5027834;28;20534;-69
2023/12/18 00:22:18;;;;;;;14.35;7.78;;;;;;;4.17;100.00;102817.38;5037293;28;20124;-69
2023/12/18 00:24:44;;;;;;;16.85;8.55;;;;;;;4.15;100.00;102827.50;5024359;28;20052;-69
2023/12/18 00:27:09;;;;;;;18.08;9.25;;;;;;;4.28;100.00;102831.56;5054125;28;20061;-69
2023/12/18 00:29:34;;;;;;;17.35;9.18;;;;;;;4.27;100.00;102835.81;5022422;28;20045;-69
2023/12/18 00:32:00;;;;;;;18.63;9.52;;;;;;;4.18;100.00;102819.97;5007155;28;20056;-69
2023/12/18 00:34:28;;;;;;;17.70;9.07;;;;;;;4.09;100.00;102825.53;5026768;28;20021;-69
2023/12/18 00:36:53;;;;;;;18.48;8.77;;;;;;;3.97;100.00;102806.13;5026610;28;20037;-68
2023/12/18 00:39:19;;;;;;;18.23;8.60;;;;;;;3.89;100.00;102820.19;5040215;28;20401;-69
2023/12/18 00:41:45;;;;;;;20.15;9.80;;;;;;;3.85;100.00;102824.31;5020157;28;20038;-68
2023/12/18 00:44:11;;;;;;;19.50;8.88;;;;;;;3.78;100.00;102827.31;5022821;28;20504;-69
2023/12/18 00:46:36;;;;;;;16.00;8.68;;;;;;;3.71;100.00;102817.56;5019575;28;20025;-69
2023/12/18 00:49:02;;;;;;;12.60;7.65;;;;;;;3.64;100.00;102818.06;5057553;28;20041;-69
2023/12/18 00:51:27;;;;;;;16.55;8.13;;;;;;;3.60;100.00;102810.13;5019561;28;20061;-68
2023/12/18 00:53:53;;;;;;;15.25;8.38;;;;;;;3.54;100.00;102811.59;5041787;28;20530;-69
2023/12/18 00:56:19;;;;;;;18.00;9.20;;;;;;;3.54;100.00;102809.03;5022501;28;20412;-69
2023/12/18 00:58:44;;;;;;;23.17;10.32;;;;;;;3.60;100.00;102816.13;5025582;28;20296;-68
2023/12/18 01:01:10;;;;;;;21.38;9.95;;;;;;;3.54;100.00;102819.25;5023103;28;20038;-68
2023/12/18 01:03:37;;;;;;;18.10;10.23;;;;;;;3.47;100.00;102817.16;5053540;28;20504;-69
2023/12/18 01:06:04;;;;;;;17.65;9.52;;;;;;;3.41;100.00;102819.41;5020366;28;20531;-69
2023/12/18 01:08:29;;;;;;;20.38;9.35;;;;;;;3.36;100.00;102818.28;5026994;28;20034;-68
2023/12/18 01:10:55;;;;;;;19.35;9.70;;;;;;;3.33;100.00;102817.22;5057936;28;20040;-69
2023/12/18 01:13:20;;;;;;;19.50;9.93;;;;;;;3.34;100.00;102827.56;5026366;28;20028;-69
2023/12/18 01:15:45;;;;;;;19.38;9.73;;;;;;;3.34;100.00;102819.00;5062881;28;20025;-68
2023/12/18 01:18:11;;;;;;;19.60;9.75;;;;;;;3.29;100.00;102821.28;5029211;28;20120;-69
2023/12/18 01:20:36;;;;;;;18.33;9.65;;;;;;;3.25;100.00;102821.94;5009568;28;20056;-68
2023/12/18 01:23:02;;;;;;;15.90;9.73;;;;;;;3.24;100.00;102820.19;5024906;28;20034;-69
2023/12/18 01:25:27;;;;;;;19.85;10.35;;;;;;;3.18;100.00;102822.41;5028552;28;20033;-69
2023/12/18 01:27:53;;;;;;;20.35;11.10;;;;;;;3.18;100.00;102831.72;5031474;28;20048;-69
2023/12/18 01:30:21;;;;;;;20.52;10.50;;;;;;;3.17;100.00;102818.06;5045348;28;20615;-69
2023/12/18 01:32:49;;;;;;;25.67;11.57;;;;;;;3.21;100.00;102832.78;5025195;28;20034;-69
2023/12/18 01:35:15;;;;;;;18.15;10.30;;;;;;;3.16;100.00;102828.22;5025708;28;20496;-68
2023/12/18 01:37:43;;;;;;;26.60;10.43;;;;;;;3.15;100.00;102835.00;5031714;28;20033;-68
2023/12/18 01:40:09;;;;;;;17.33;9.77;;;;;;;3.12;100.00;102833.97;5051193;28;20161;-68
2023/12/18 01:42:39;;;;;;;21.80;10.13;;;;;;;3.08;100.00;102830.38;5060679;28;20597;-68
2023/12/18 01:45:05;;;;;;;22.05;10.75;;;;;;;3.05;100.00;102826.78;5030443;28;20052;-68
2023/12/18 01:47:30;;;;;;;20.55;10.45;;;;;;;3.02;100.00;102824.06;5060916;28;20037;-68
2023/12/18 01:49:59;;;;;;;20.65;10.80;;;;;;;3.01;100.00;102825.72;5061253;28;20404;-69
2023/12/18 01:52:24;;;;;;;24.48;11.15;;;;;;;3.00;100.00;102821.41;5027162;28;20037;-68
2023/12/18 01:54:51;;;;;;;23.83;10.80;;;;;;;3.02;100.00;102826.59;5025872;28;20034;-68
2023/12/18 01:57:19;;;;;;;23.98;11.43;;;;;;;2.96;100.00;102825.44;5033652;28;20053;-68
2023/12/18 01:59:45;;;;;;;23.38;10.82;;;;;;;2.93;100.00;102827.84;5056703;28;20045;-68
2023/12/18 02:02:11;;;;;;;20.50;10.35;;;;;;;2.90;100.00;102829.38;5024248;28;20029;-68
2023/12/18 02:04:37;;;;;;;24.45;12.25;;;;;;;2.85;100.00;102821.44;5024261;28;20103;-68
2023/12/18 02:07:05;;;;;;;28.80;12.30;;;;;;;2.89;100.00;102818.25;5056792;28;20034;-69
2023/12/18 02:09:30;;;;;;;22.20;11.65;;;;;;;2.85;100.00;102823.97;5026969;28;20025;-69
2023/12/18 02:11:56;;;;;;;24.00;12.10;;;;;;;2.84;100.00;102822.25;5059365;28;20040;-69
2023/12/18 02:14:21;;;;;;;23.88;12.13;;;;;;;2.79;100.00;102820.19;5025638;28;20091;-69
2023/12/18 02:16:47;;;;;;;24.77;12.07;;;;;;;2.73;100.00;102823.31;5026974;28;20037;-70
2023/12/18 02:19:26;;;;;;;22.60;11.50;;;;;;;2.69;100.00;102823.06;5023283;28;20199;-69
2023/12/18 02:21:53;;;;;;;21.63;11.02;;;;;;;2.68;100.00;102826.41;5020659;28;20041;-69
2023/12/18 02:24:21;;;;;;;21.00;10.63;;;;;;;2.64;100.00;102827.00;5021877;28;20030;-69
2023/12/18 02:26:47;;;;;;;22.60;10.65;;;;;;;2.60;100.00;102825.09;5027051;28;20151;-69
2023/12/18 02:29:12;;;;;;;21.73;10.90;;;;;;;2.62;100.00;102826.03;5026054;28;20052;-69
2023/12/18 02:31:39;;;;;;;24.00;12.00;;;;;;;2.62;100.00;102832.03;5026170;28;20119;-69
2023/12/18 02:34:05;;;;;;;27.20;11.50;;;;;;;2.56;100.00;102830.81;5024647;28;20041;-68
2023/12/18 02:36:30;;;;;;;24.33;11.65;;;;;;;2.56;100.00;102830.81;5022099;28;20064;-69
2023/12/18 02:38:56;;;;;;;24.55;10.60;;;;;;;2.52;100.00;102826.34;5024486;28;20029;-69
2023/12/18 02:41:21;;;;;;;17.73;10.18;;;;;;;2.51;100.00;102828.00;5027178;28;20099;-68
2023/12/18 02:43:47;;;;;;;24.30;11.00;;;;;;;2.54;100.00;102834.97;5057127;28;20559;-69
2023/12/18 02:46:12;;;;;;;24.67;11.73;;;;;;;2.58;100.00;102834.34;5042196;28;20239;-69
2023/12/18 02:48:38;;;;;;;26.58;12.43;;;;;;;2.48;100.00;102830.38;5027677;28;20030;-69
2023/12/18 02:51:04;;;;;;;22.20;11.55;;;;;;;2.40;100.00;102837.59;5030234;28;20034;-69
2023/12/18 02:53:29;;;;;;;18.52;10.48;;;;;;;2.34;100.00;102842.34;5030140;28;20033;-68
2023/12/18 02:55:55;;;;;;;23.73;11.77;;;;;;;2.30;100.00;102834.44;5024869;28;20149;-69
2023/12/18 02:58:22;;;;;;;19.77;10.93;;;;;;;2.27;100.00;102831.69;5009629;28;20041;-69
2023/12/18 03:00:50;;;;;;;24.08;10.95;;;;;;;2.28;100.00;102833.47;5057378;28;20089;-69
2023/12/18 03:03:16;;;;;;;24.98;10.90;;;;;;;2.25;100.00;102834.16;5010780;28;20038;-69
2023/12/18 03:05:45;;;;;;;24.13;12.15;;;;;;;2.24;100.00;102826.41;5027746;28;20075;-69
2023/12/18 03:08:10;;;;;;;24.38;12.05;;;;;;;2.24;100.00;102831.53;5015485;28;20477;-68
2023/12/18 03:10:36;;;;;;;22.67;11.30;;;;;;;2.25;100.00;102833.28;5041826;28;20048;-69
2023/12/18 03:13:01;;;;;;;23.98;12.48;;;;;;;2.24;100.00;102823.88;5030937;28;20157;-68
2023/12/18 03:15:27;;;;;;;25.40;11.68;;;;;;;2.18;100.00;102821.84;5008027;28;20641;-68
2023/12/18 03:17:52;;;;;;;22.17;11.75;;;;;;;2.15;100.00;102819.13;5040045;28;20079;-68
2023/12/18 03:20:18;;;;;;;21.85;11.85;;;;;;;2.11;100.00;102826.47;5041053;28;20520;-69
2023/12/18 03:22:43;;;;;;;25.02;11.43;;;;;;;2.09;100.00;102831.50;5026868;28;20026;-69
2023/12/18 03:25:09;;;;;;;20.48;10.85;;;;;;;2.08;100.00;102829.75;5056508;28;20160;-69
2023/12/18 03:27:34;;;;;;;21.70;10.60;;;;;;;2.06;100.00;102822.78;5039712;28;20068;-68
2023/12/18 03:30:00;;;;;;;26.58;12.45;;;;;;;2.08;100.00;102834.84;5021408;28;20080;-68
2023/12/18 03:32:25;;;;;;;24.00;12.55;;;;;;;2.11;100.00;102829.91;5025922;28;20034;-69
2023/12/18 03:34:51;;;;;;;22.83;11.10;;;;;;;2.05;100.00;102827.00;5027482;28;20037;-69
2023/12/18 03:37:16;;;;;;;20.25;11.15;;;;;;;2.00;100.00;102825.88;5024975;28;20607;-69
2023/12/18 03:39:44;;;;;;;19.58;11.18;;;;;;;1.95;100.00;102826.41;5022080;28;20079;-69
2023/12/18 03:42:10;;;;;;;18.83;11.23;;;;;;;1.92;100.00;102821.13;5056880;28;20037;-69
2023/12/18 03:44:35;;;;;;;21.75;11.57;;;;;;;1.91;100.00;102830.44;5026032;28;20442;-69
2023/12/18 03:47:02;;;;;;;25.58;12.65;;;;;;;1.90;100.00;102809.91;5043529;28;20079;-68
2023/12/18 03:49:28;;;;;;;24.70;11.23;;;;;;;1.86;100.00;102812.28;5024536;28;20617;-69
2023/12/18 03:51:53;;;;;;;23.38;11.00;;;;;;;1.84;100.00;102800.25;5061714;28;20052;-68
2023/12/18 03:54:19;;;;;;;26.92;11.43;;;;;;;1.82;100.00;102810.38;5025085;28;20085;-69
2023/12/18 03:56:44;;;;;;;19.85;9.50;;;;;;;1.80;100.00;102806.84;5022146;28;20033;-68
2023/12/18 03:59:10;;;;;;;20.70;11.00;;;;;;;1.80;100.00;102809.41;5024757;28;20049;-68
2023/12/18 04:01:36;;;;;;;21.55;10.77;;;;;;;1.78;100.00;102804.97;5026204;28;20107;-69
2023/12/18 04:04:02;;;;;;;22.67;10.70;;;;;;;1.73;100.00;102799.63;5040931;28;20033;-69
2023/12/18 04:06:28;;;;;;;27.20;10.88;;;;;;;1.68;100.00;102793.38;5026422;28;20500;-69
2023/12/18 04:08:53;;;;;;;24.58;10.85;;;;;;;1.72;100.00;102799.50;5027589;28;20096;-69
2023/12/18 04:11:22;;;;;;;22.80;11.30;;;;;;;1.70;100.00;102789.25;5021240;28;20463;-69
2023/12/18 04:13:48;;;;;;;25.65;11.32;;;;;;;1.68;100.00;102787.41;5017303;28;20033;-69
2023/12/18 04:16:14;;;;;;;20.30;10.48;;;;;;;1.70;100.00;102778.16;5018882;28;20228;-69
2023/12/18 04:18:39;;;;;;;25.60;11.07;;;;;;;1.70;100.00;102779.03;5029884;28;20064;-69
2023/12/18 04:21:05;;;;;;;21.77;9.88;;;;;;;1.66;100.00;102771.09;5052604;28;20065;-69
2023/12/18 04:23:30;;;;;;;18.80;9.05;;;;;;;1.64;100.00;102770.16;5040085;28;20045;-69
2023/12/18 04:25:56;;;;;;;25.27;11.10;;;;;;;1.66;100.00;102771.09;5025306;28;20017;-69
2023/12/18 04:28:21;;;;;;;25.45;11.98;;;;;;;1.69;100.00;102772.19;5055585;28;20029;-69
2023/12/18 04:30:49;;;;;;;27.52;11.63;;;;;;;1.66;100.00;102773.66;5039019;28;20034;-69
2023/12/18 04:33:15;;;;;;;23.25;11.52;;;;;;;1.63;100.00;102766.72;5023132;28;20071;-69
2023/12/18 04:35:44;;;;;;;25.17;11.35;;;;;;;1.64;100.00;102768.47;5024978;28;20042;-69
2023/12/18 04:38:09;;;;;;;25.83;12.02;;;;;;;1.71;100.00;102769.72;5057510;28;20059;-69
2023/12/18 04:40:35;;;;;;;27.90;12.00;;;;;;;1.73;100.00;102776.69;5026785;28;20036;-69
2023/12/18 04:43:00;;;;;;;28.30;15.05;;;;;;;1.75;100.00;102785.28;5020326;28;20037;-69
2023/12/18 04:45:26;;;;;;;25.40;11.07;;;;;;;1.71;100.00;102775.72;5053288;28;20428;-69
2023/12/18 04:47:51;;;;;;;30.80;12.10;;;;;;;1.71;100.00;102774.84;5023803;28;20489;-70
2023/12/18 04:50:17;;;;;;;24.40;10.95;;;;;;;1.68;100.00;102756.81;5041013;28;20511;-69
2023/12/18 04:52:42;;;;;;;22.83;10.13;;;;;;;1.65;100.00;102762.59;5025261;28;20037;-69
2023/12/18 04:55:08;;;;;;;18.92;9.77;;;;;;;1.68;100.00;102754.25;5053030;28;20041;-69
2023/12/18 04:57:35;;;;;;;25.05;11.45;;;;;;;1.70;100.00;102751.00;5024678;28;20040;-69
2023/12/18 05:00:01;;;;;;;20.38;11.50;;;;;;;1.65;100.00;102741.34;5021723;28;20080;-69
2023/12/18 05:02:26;;;;;;;27.67;11.93;;;;;;;1.63;100.00;102740.34;5038644;28;20519;-69
2023/12/18 05:04:51;;;;;;;24.30;11.43;;;;;;;1.64;100.00;102743.00;5019893;28;20076;-68
2023/12/18 05:07:17;;;;;;;26.30;11.70;;;;;;;1.68;100.00;102749.16;5025911;28;20041;-69
2023/12/18 05:09:42;;;;;;;28.00;12.60;;;;;;;1.73;100.00;102755.41;5021888;28;20042;-69
2023/12/18 05:12:08;;;;;;;31.08;12.95;;;;;;;1.82;100.00;102761.03;5022592;28;20045;-69
2023/12/18 05:14:33;;;;;;;31.25;13.27;;;;;;;1.82;100.00;102761.91;5021770;28;20068;-69
2023/12/18 05:16:59;;;;;;;25.33;11.75;;;;;;;1.75;100.00;102764.00;5025909;28;21339;-69
2023/12/18 05:19:24;;;;;;;25.90;13.13;;;;;;;1.71;100.00;102765.53;5020819;28;20496;-69
2023/12/18 05:21:50;;;;;;;26.50;12.65;;;;;;;1.71;100.00;102760.41;5021072;28;20527;-69
2023/12/18 05:24:15;;;;;;;19.85;11.30;;;;;;;1.65;100.00;102762.59;5051935;28;20043;-70
2023/12/18 05:26:41;;;;;;;31.67;12.60;;;;;;;1.81;100.00;102756.72;5022977;28;20069;-69
2023/12/18 05:29:06;;;;;;;27.48;13.52;;;;;;;1.70;100.00;102762.88;5057762;28;20100;-69
2023/12/18 05:31:32;;;;;;;26.90;14.15;;;;;;;1.65;100.00;102764.28;5055173;28;20038;-69
2023/12/18 05:33:58;;;;;;;35.60;15.88;;;;;;;1.64;100.00;102759.94;5052735;28;20692;-69
2023/12/18 05:36:23;;;;;;;37.10;17.70;;;;;;;1.63;100.00;102766.72;5025887;28;20095;-69
2023/12/18 05:38:49;;;;;;;37.50;19.40;;;;;;;1.62;100.00;102772.63;5024498;28;20124;-69
2023/12/18 05:41:14;;;;;;;32.30;15.02;;;;;;;1.63;100.00;102773.47;5040493;28;20550;-69
2023/12/18 05:43:40;;;;;;;30.23;14.00;;;;;;;1.57;100.00;102780.75;5024769;28;20624;-69
2023/12/18 05:46:05;;;;;;;22.15;12.48;;;;;;;1.59;100.00;102781.75;5024231;28;20064;-69
2023/12/18 05:48:31;;;;;;;34.42;14.68;;;;;;;1.79;100.00;102776.16;5037116;28;20140;-70
2023/12/18 05:50:56;;;;;;;26.17;12.73;;;;;;;1.72;100.00;102780.00;5020395;28;20042;-70
2023/12/18 05:53:21;;;;;;;26.75;13.20;;;;;;;1.66;100.00;102782.19;5040786;28;20057;-69
2023/12/18 05:55:48;;;;;;;27.60;14.18;;;;;;;1.58;100.00;102791.06;5058841;28;20147;-69
2023/12/18 05:58:13;;;;;;;30.65;12.98;;;;;;;1.57;100.00;102796.03;5055060;28;20087;-70
2023/12/18 06:00:38;;;;;;;26.23;12.38;;;;;;;1.54;100.00;102781.44;5021864;28;20045;-69
2023/12/18 06:03:04;;;;;;;23.77;12.10;;;;;;;1.55;100.00;102779.78;5021217;28;20053;-69
2023/12/18 06:05:29;;;;;;;23.50;12.57;;;;;;;1.56;100.00;102790.09;5052327;28;20439;-69
2023/12/18 06:07:55;;;;;;;26.27;13.15;;;;;;;1.66;100.00;102794.03;5058537;28;20061;-69
2023/12/18 06:10:20;;;;;;;27.67;13.55;;;;;;;1.63;100.00;102787.09;5027581;28;20056;-69
2023/12/18 06:12:46;;;;;;;26.65;13.55;;;;;;;1.55;100.00;102787.44;5025298;28;20041;-69
2023/12/18 06:15:11;;;;;;;27.17;13.05;;;;;;;1.47;100.00;102774.25;5029854;28;20098;-69
2023/12/18 06:17:37;;;;;;;24.88;12.50;;;;;;;1.39;100.00;102772.88;5028227;28;20410;-69
2023/12/18 06:20:05;;;;;;;23.05;13.15;;;;;;;1.34;100.00;102771.72;5027939;28;20026;-70
2023/12/18 06:22:31;;;;;;;23.13;12.30;;;;;;;1.31;100.00;102781.75;5026019;28;20152;-69
2023/12/18 06:24:56;;;;;;;21.70;12.27;;;;;;;1.35;100.00;102787.91;5034461;28;20059;-69
2023/12/18 06:27:22;;;;;;;22.98;12.73;;;;;;;1.31;100.00;102794.47;5026880;28;20532;-69
2023/12/18 06:29:47;;;;;;;22.90;12.00;;;;;;;1.28;100.00;102792.63;5022830;28;20062;-69
2023/12/18 06:32:14;;;;;;;25.45;12.02;;;;;;;1.24;100.00;102797.47;5026987;28;20060;-69
2023/12/18 06:34:41;;;;;;;21.13;10.85;;;;;;;1.24;100.00;102797.47;5028178;28;20044;-69
2023/12/18 06:37:06;;;;;;;24.20;11.70;;;;;;;1.24;100.00;102795.75;5026827;28;20119;-69
2023/12/18 06:39:32;;;;;;;22.70;11.38;;;;;;;1.21;100.00;102805.75;5031420;28;20037;-69
2023/12/18 06:41:57;;;;;;;23.77;10.77;;;;;;;1.19;100.00;102809.88;5026120;28;20568;-69
2023/12/18 06:44:23;;;;;;;19.85;11.00;;;;;;;1.15;100.00;102801.97;5025598;28;20049;-68
2023/12/18 06:46:48;;;;;;;19.65;11.23;;;;;;;1.13;100.00;102804.41;5031505;28;20532;-66
2023/12/18 06:49:14;;;;;;;19.30;11.18;;;;;;;1.11;100.00;102800.03;5025473;28;20439;-67
2023/12/18 06:51:39;;;;;;;23.75;11.43;;;;;;;1.13;100.00;102806.97;5058224;28;20072;-67
2023/12/18 06:54:05;;;;;;;28.17;11.55;;;;;;;1.13;100.00;102806.97;5025499;28;20544;-67
2023/12/18 06:56:30;;;;;;;22.80;11.88;;;;;;;1.14;100.00;102811.28;5024268;28;20032;-67
2023/12/18 06:58:55;;;;;;;22.08;10.13;;;;;;;1.13;100.00;102806.06;5052417;28;20124;-67
2023/12/18 07:01:21;;;;;;;23.10;11.50;;;;;;;1.14;100.00;102802.75;5026228;28;20544;-67
2023/12/18 07:03:46;;;;;;;27.17;12.15;;;;;;;1.13;100.00;102809.50;5025506;28;20063;-69
2023/12/18 07:06:12;;;;;;;21.30;11.68;;;;;;;1.05;100.00;102803.06;5027973;28;20150;-69
2023/12/18 07:08:37;;;;;;;23.65;11.85;;;;;;;1.02;100.00;102804.53;5010106;28;20087;-69
2023/12/18 07:11:03;;;;;;;22.02;11.27;;;;;;;1.00;100.00;102807.00;5030314;28;20029;-69
2023/12/18 07:13:28;;;;;;;22.67;12.02;;;;;;;1.00;100.00;102809.56;5004344;28;20053;-69
2023/12/18 07:15:54;;;;;;;23.83;10.85;;;;;;;1.02;100.00;102807.09;5037618;28;20034;-68
2023/12/18 07:18:19;;;;;;;25.60;12.98;;;;;;;1.03;100.00;102803.75;5022686;28;20706;-68
2023/12/18 07:20:45;;;;;;;24.35;12.43;;;;;;;1.03;100.00;102802.09;5026453;28;20041;-68
2023/12/18 07:23:11;;;;;;;25.55;13.45;;;;;;;1.05;100.00;102807.28;5025443;28;20025;-69
2023/12/18 07:25:37;;;;;;;31.38;13.45;;;;;;;1.08;100.00;102823.63;5056459;28;20075;-69
2023/12/18 07:28:09;;;;;;;31.92;13.20;;;;;;;1.08;100.00;102820.19;5024318;28;20143;-69
2023/12/18 07:30:34;;;;;;;27.05;13.73;;;;;;;1.12;100.00;102828.09;5025968;28;20088;-68
2023/12/18 07:33:00;;;;;;;25.55;12.48;;;;;;;1.08;100.00;102831.28;5021914;28;20038;-68
2023/12/18 07:35:26;;;;;;;28.33;13.60;;;;;;;1.08;100.00;102826.19;5025042;28;20045;-68
2023/12/18 07:37:51;;;;;;;26.70;14.07;;;;;;;1.10;100.00;102822.06;5008068;28;20839;-68
2023/12/18 07:40:17;;;;;;;26.60;12.60;;;;;;;1.11;100.00;102826.38;5020248;28;20034;-68
2023/12/18 07:42:42;;;;;;;29.45;15.85;;;;;;;1.15;100.00;102824.91;5026069;28;20042;-68
2023/12/18 07:45:08;;;;;;;32.88;13.95;;;;;;;1.14;100.00;102829.09;5056683;28;20063;-68
2023/12/18 07:47:34;;;;;;;24.58;12.43;;;;;;;1.15;100.00;102835.94;5023016;28;20041;-69
2023/12/18 07:49:59;;;;;;;30.45;15.13;;;;;;;1.16;100.00;102835.16;5021250;28;20049;-69
2023/12/18 07:52:24;;;;;;;26.80;13.50;;;;;;;1.20;100.00;102836.25;5026512;28;20527;-68
2023/12/18 07:54:50;;;;;;;32.58;15.32;;;;;;;1.24;100.00;102841.59;5024675;28;20042;-69
2023/12/18 07:57:15;;;;;;;28.35;14.98;;;;;;;1.23;100.00;102839.88;5040159;28;20037;-69
2023/12/18 07:59:41;;;;;;;30.95;15.02;;;;;;;1.27;100.00;102836.72;5026291;28;20038;-69
2023/12/18 08:02:07;;;;;;;36.80;15.75;;;;;;;1.33;100.00;102840.44;5021821;28;20040;-69
2023/12/18 08:04:33;;;;;;;33.78;15.85;;;;;;;1.36;100.00;102846.56;5026932;28;20033;-68
2023/12/18 08:06:58;;;;;;;32.40;14.65;;;;;;;1.40;100.00;102845.09;5058543;28;20132;-69
2023/12/18 08:09:24;;;;;;;32.45;15.68;;;;;;;1.43;100.00;102850.38;5024829;28;20033;-69
2023/12/18 08:11:49;;;;;;;34.65;16.50;;;;;;;1.45;100.00;102849.69;5018782;28;20583;-68
2023/12/18 08:14:14;;;;;;;27.67;14.80;;;;;;;1.47;100.00;102847.25;5027222;28;20034;-69
2023/12/18 08:16:40;;;;;;;29.40;14.98;;;;;;;1.52;100.00;102850.97;5009214;28;20033;-69
2023/12/18 08:19:05;;;;;;;34.72;15.40;;;;;;;1.55;100.00;102849.47;5025675;28;20564;-68
2023/12/18 08:21:31;;;;;;;30.92;15.68;;;;;;;1.59;100.00;102859.09;5022044;28;20552;-68
2023/12/18 08:23:56;;;;;;;31.23;15.30;;;;;;;1.65;100.00;102856.91;5024169;28;20041;-68
2023/12/18 08:26:22;;;;;;;32.95;16.20;;;;;;;1.69;100.00;102852.84;5022102;28;20076;-68
2023/12/18 08:28:47;;;;;;;41.30;16.63;;;;;;;1.74;100.00;102852.38;5026641;28;20100;-68
2023/12/18 08:31:13;;;;;;;35.67;18.02;;;;;;;1.79;100.00;102855.19;5023754;28;20041;-68
2023/12/18 08:33:40;;;;;;;34.05;15.82;;;;;;;1.81;100.00;102862.13;5056210;28;20041;-69
2023/12/18 08:36:06;;;;;;;36.28;17.80;;;;;;;1.97;100.00;102856.28;5029915;28;20071;-69
2023/12/18 08:38:31;;;;;;;34.65;17.23;;;;;;;2.01;100.00;102847.16;5019027;28;20037;-69
2023/12/18 08:40:57;;;;;;;33.42;16.85;;;;;;;2.01;100.00;102852.25;5022697;28;20447;-68
2023/12/18 08:43:22;;;;;;;31.27;16.27;;;;;;;2.01;100.00;102850.59;5054944;28;20052;-69
2023/12/18 08:45:48;;;;;;;33.75;16.42;;;;;;;2.02;100.00;102843.78;5040735;28;20061;-68
2023/12/18 08:48:14;;;;;;;31.48;16.55;;;;;;;2.05;100.00;102847.41;5058802;28;20033;-68
2023/12/18 08:50:39;;;;;;;32.67;15.38;;;;;;;2.06;100.00;102838.09;5026645;28;20044;-69
2023/12/18 08:53:05;;;;;;;28.65;15.02;;;;;;;2.08;100.00;102833.97;5059659;28;20041;-69
2023/12/18 08:55:30;;;;;;;27.95;14.48;;;;;;;2.12;100.00;102836.78;5018750;28;20398;-69
2023/12/18 08:57:56;;;;;;;31.23;15.75;;;;;;;2.18;100.00;102836.25;5020373;28;20034;-69
2023/12/18 09:00:22;;;;;;;28.00;16.13;;;;;;;2.24;100.00;102834.06;5024322;28;20489;-68
2023/12/18 09:02:47;;;;;;;31.02;15.82;;;;;;;2.31;100.00;102839.59;5022199;28;20041;-69
2023/12/18 09:05:13;;;;;;;33.53;16.80;;;;;;;2.41;100.00;102849.56;5020553;28;20174;-68
2023/12/18 09:07:39;;;;;;;31.77;15.55;;;;;;;2.46;100.00;102839.59;5021659;28;20132;-69
2023/12/18 09:10:05;;;;;;;31.40;16.13;;;;;;;2.54;100.00;102840.06;5041389;28;20037;-69
2023/12/18 09:12:30;;;;;;;31.40;15.80;;;;;;;2.60;100.00;102841.28;5026174;28;20041;-69
2023/12/18 09:14:55;;;;;;;34.13;17.73;;;;;;;2.65;100.00;102842.44;5025094;28;20044;-68
2023/12/18 09:17:21;;;;;;;30.73;15.93;;;;;;;2.72;100.00;102833.44;5025194;28;20121;-68
2023/12/18 09:19:46;;;;;;;25.80;13.85;;;;;;;2.77;100.00;102829.47;5055814;28;20494;-69
2023/12/18 09:22:11;;;;;;;26.23;14.73;;;;;;;2.81;100.00;102827.19;5025320;28;20384;-69
2023/12/18 09:24:37;;;;;;;24.15;14.45;;;;;;;2.86;100.00;102824.88;5023749;28;20103;-69
2023/12/18 09:27:03;;;;;;;31.90;15.35;;;;;;;2.92;100.00;102822.66;5024825;28;20053;-69
2023/12/18 09:29:29;;;;;;;27.25;15.23;;;;;;;2.96;100.00;102820.34;5056752;28;20046;-69
2023/12/18 09:31:54;;;;;;;27.00;14.57;;;;;;;3.03;100.00;102819.00;5028340;28;20040;-69
2023/12/18 09:34:20;;;;;;;27.90;14.98;;;;;;;3.08;100.00;102820.16;5029251;28;20093;-68
2023/12/18 09:36:45;;;;;;;29.02;15.57;;;;;;;3.13;100.00;102817.84;5022706;28;20459;-69
2023/12/18 09:39:11;;;;;;;28.35;14.57;;;;;;;3.17;100.00;102819.78;5025462;28;20034;-69
2023/12/18 09:41:36;;;;;;;31.27;16.38;;;;;;;3.21;100.00;102817.47;5023514;28;20416;-69
2023/12/18 09:44:02;;;;;;;28.30;14.65;;;;;;;3.27;100.00;102816.91;5041356;28;20244;-69
2023/12/18 09:46:27;;;;;;;32.63;15.65;;;;;;;3.36;100.00;102820.84;5028541;28;20040;-69
2023/12/18 09:48:53;;;;;;;29.65;15.13;;;;;;;3.45;100.00;102816.22;5023867;28;20034;-69
2023/12/18 09:51:24;;;;;;;28.70;15.27;;;;;;;3.53;100.00;102809.81;5032274;28;20040;-69
2023/12/18 09:53:51;;;;;;;28.25;15.52;;;;;;;3.58;100.00;102804.06;5023054;28;20361;-69
2023/12/18 09:56:21;;;;;;;25.52;14.85;;;;;;;3.60;100.00;102799.91;5030150;28;20052;-68
2023/12/18 09:58:48;;;;;;;27.13;14.68;;;;;;;3.63;100.00;102802.63;5032694;28;20018;-69
2023/12/18 10:01:14;;;;;;;27.15;14.27;;;;;;;3.65;100.00;102799.34;5033695;28;20033;-68
2023/12/18 10:03:40;;;;;;;23.90;14.60;;;;;;;3.72;100.00;102792.88;5032698;28;20087;-68
2023/12/18 10:06:06;;;;;;;24.63;13.07;;;;;;;3.76;100.00;102788.00;5029288;28;20091;-68
2023/12/18 10:08:32;;;;;;;31.65;14.98;;;;;;;3.84;100.00;102785.84;5029002;28;20446;-68
2023/12/18 10:10:58;;;;;;;26.15;13.85;;;;;;;3.88;100.00;102787.75;5058050;28;20487;-69
2023/12/18 10:13:27;;;;;;;25.67;13.10;;;;;;;3.93;100.00;102787.19;4992045;28;20064;-68
2023/12/18 10:15:55;;;;;;;26.30;14.20;;;;;;;3.94;100.00;102778.69;5059120;28;20530;-68
2023/12/18 10:18:24;;;;;;;21.63;12.95;;;;;;;4.00;100.00;102779.00;5029118;28;20037;-68
2023/12/18 10:20:50;;;;;;;22.55;13.10;;;;;;;4.07;100.00;102778.50;5026370;28;20039;-69
2023/12/18 10:23:17;;;;;;;24.40;12.90;;;;;;;4.14;100.00;102782.25;5024070;28;20302;-69
2023/12/18 10:25:42;;;;;;;24.55;13.77;;;;;;;4.19;100.00;102780.81;5051996;28;20045;-68
2023/12/18 10:28:08;;;;;;;24.08;13.65;;;;;;;4.21;100.00;102781.75;5026720;28;20033;-69
2023/12/18 10:30:36;;;;;;;21.98;12.73;;;;;;;4.25;100.00;102764.88;5057662;28;20067;-69
2023/12/18 10:33:09;;;;;;;23.83;12.98;;;;;;;4.31;100.00;102763.50;5025330;28;20033;-68
2023/12/18 10:35:35;;;;;;;23.88;13.45;;;;;;;4.40;100.00;102753.69;5023898;28;20068;-68
2023/12/18 10:38:01;;;;;;;25.30;13.85;;;;;;;4.49;100.00;102759.25;5025417;28;20026;-69
2023/12/18 10:40:30;;;;;;;22.38;12.93;;;;;;;4.58;100.00;102749.47;5025905;28;20040;-69
2023/12/18 10:43:04;;;;;;;21.40;12.93;;;;;;;4.60;100.00;102745.28;5028038;28;20041;-69
2023/12/18 10:45:32;;;;;;;21.95;11.98;;;;;;;4.62;100.00;102745.38;5024030;28;20045;-69
2023/12/18 10:47:59;;;;;;;20.33;12.52;;;;;;;4.65;100.00;102741.28;5023916;28;20064;-69
2023/12/18 10:50:28;;;;;;;19.67;12.18;;;;;;;4.70;100.00;102749.16;5040719;28;20092;-68
2023/12/18 10:52:56;;;;;;;20.50;11.98;;;;;;;4.73;100.00;102739.06;5022228;28;20039;-68
2023/12/18 10:55:23;;;;;;;19.45;11.40;;;;;;;4.76;100.00;102739.19;5028630;28;20067;-69
2023/12/18 10:57:49;;;;;;;21.50;12.02;;;;;;;4.79;100.00;102734.22;5022056;28;20022;-68
2023/12/18 11:00:17;;;;;;;23.15;12.68;;;;;;;4.84;100.00;102737.84;5027920;28;20086;-69
2023/12/18 11:02:44;;;;;;;21.65;11.27;;;;;;;4.88;100.00;102737.19;5026154;28;20041;-69